createdAt,value
2023-01-29T00:00:48.633Z,-0.88
2023-01-29T00:06:13.162Z,-0.86
2023-01-29T00:11:20.683Z,-0.85
2023-01-29T00:16:24.573Z,-0.84
2023-01-29T00:21:27.982Z,-0.83
2023-01-29T00:26:30.995Z,-0.81
2023-01-29T00:31:34.991Z,-0.77
2023-01-29T00:36:38.223Z,-0.75
2023-01-29T00:41:59.881Z,-0.73
2023-01-29T00:47:03.379Z,-0.71
2023-01-29T00:52:24.406Z,-0.69
2023-01-29T00:57:30.446Z,-0.67
2023-01-29T01:02:52.014Z,-0.65
2023-01-29T01:07:58.019Z,-0.62
2023-01-29T01:13:06.832Z,-0.60
2023-01-29T01:18:10.135Z,-0.59
2023-01-29T01:23:13.243Z,-0.58
2023-01-29T01:28:16.449Z,-0.57
2023-01-29T01:33:20.580Z,-0.59
2023-01-29T01:38:23.682Z,-0.62
2023-01-29T01:43:26.787Z,-0.62
2023-01-29T01:48:29.897Z,-0.60
2023-01-29T01:53:39.455Z,-0.59
2023-01-29T01:58:50.955Z,-0.59
2023-01-29T02:04:24.061Z,-0.58
2023-01-29T02:09:36.101Z,-0.57
2023-01-29T02:14:41.558Z,-0.55
2023-01-29T02:19:50.376Z,-0.53
2023-01-29T02:24:59.220Z,-0.51
2023-01-29T02:30:31.815Z,-0.49
2023-01-29T02:35:47.009Z,-0.48
2023-01-29T02:41:12.650Z,-0.46
2023-01-29T02:46:21.474Z,-0.46
2023-01-29T02:51:37.994Z,-0.46
2023-01-29T02:56:52.060Z,-0.46
2023-01-29T03:02:01.396Z,-0.47
2023-01-29T03:07:10.865Z,-0.48
2023-01-29T03:12:34.271Z,-0.49
2023-01-29T03:17:44.085Z,-0.50
2023-01-29T03:22:53.254Z,-0.50
2023-01-29T03:28:20.730Z,-0.50
2023-01-29T03:33:26.569Z,-0.51
2023-01-29T03:38:32.520Z,-0.49
2023-01-29T03:43:46.134Z,-0.49
2023-01-29T03:49:10.119Z,-0.51
2023-01-29T03:54:29.504Z,-0.51
2023-01-29T03:59:58.314Z,-0.52
2023-01-29T04:05:12.168Z,-0.52
2023-01-29T04:10:21.603Z,-0.51
2023-01-29T04:15:29.010Z,-0.51
2023-01-29T04:20:33.265Z,-0.50
2023-01-29T04:25:46.406Z,-0.51
2023-01-29T04:31:09.434Z,-0.52
2023-01-29T04:36:38.491Z,-0.51
2023-01-29T04:42:23.169Z,-0.50
2023-01-29T04:47:36.099Z,-0.52
2023-01-29T04:52:50.176Z,-0.52
2023-01-29T04:58:05.560Z,-0.52
2023-01-29T05:03:11.822Z,-0.51
2023-01-29T05:08:19.627Z,-0.48
2023-01-29T05:13:24.601Z,-0.47
2023-01-29T05:18:29.520Z,-0.46
2023-01-29T05:23:32.559Z,-0.44
2023-01-29T05:28:35.657Z,-0.44
2023-01-29T05:33:38.777Z,-0.44
2023-01-29T05:38:41.871Z,-0.43
2023-01-29T05:43:45.179Z,-0.43
2023-01-29T05:48:48.288Z,-0.41
2023-01-29T05:53:51.301Z,-0.41
2023-01-29T05:58:54.906Z,-0.40
2023-01-29T06:03:57.910Z,-0.39
2023-01-29T06:09:01.016Z,-0.37
2023-01-29T06:14:04.223Z,-0.35
2023-01-29T06:19:07.333Z,-0.32
2023-01-29T06:24:10.563Z,-0.30
2023-01-29T06:29:13.542Z,-0.30
2023-01-29T06:34:16.959Z,-0.28
2023-01-29T06:39:20.056Z,-0.25
2023-01-29T06:44:23.160Z,-0.23
2023-01-29T06:49:26.181Z,-0.21
2023-01-29T06:54:29.891Z,-0.19
2023-01-29T06:59:33.609Z,-0.18
2023-01-29T07:04:38.144Z,-0.14
2023-01-29T07:09:43.203Z,-0.10
2023-01-29T07:14:46.713Z,-0.07
2023-01-29T07:19:50.164Z,-0.04
2023-01-29T07:24:53.261Z,-0.01
2023-01-29T07:29:56.229Z,0.03
2023-01-29T07:34:59.244Z,0.07
2023-01-29T07:40:02.685Z,0.12
2023-01-29T07:45:08.671Z,0.19
2023-01-29T07:50:12.546Z,0.26
2023-01-29T07:55:16.726Z,0.35
2023-01-29T08:00:20.391Z,0.44
2023-01-29T08:05:23.544Z,0.54
2023-01-29T08:10:27.038Z,0.64
2023-01-29T08:15:30.975Z,0.73
2023-01-29T08:20:34.144Z,0.89
2023-01-29T08:25:37.404Z,0.98
2023-01-29T08:30:40.708Z,1.05
2023-01-29T08:35:50.058Z,1.12
2023-01-29T08:40:53.117Z,1.15
2023-01-29T08:45:57.122Z,1.17
2023-01-29T08:51:03.062Z,1.19
2023-01-29T08:56:07.498Z,1.22
2023-01-29T09:01:12.859Z,1.24
2023-01-29T09:06:16.280Z,1.28
2023-01-29T09:11:19.596Z,1.38
2023-01-29T09:16:22.677Z,1.47
2023-01-29T09:21:25.639Z,1.52
2023-01-29T09:26:28.773Z,1.56
2023-01-29T09:31:32.660Z,1.58
2023-01-29T09:36:35.779Z,1.62
2023-01-29T09:41:45.228Z,1.65
2023-01-29T09:46:53.973Z,1.65
2023-01-29T09:52:05.960Z,1.63
2023-01-29T09:57:15.774Z,1.70
2023-01-29T10:02:19.101Z,1.85
2023-01-29T10:08:00.286Z,2.06
2023-01-29T10:13:08.277Z,2.23
2023-01-29T10:18:30.532Z,2.36
2023-01-29T10:23:36.502Z,2.45
2023-01-29T10:28:50.862Z,2.42
2023-01-29T10:34:04.477Z,2.28
2023-01-29T10:39:17.937Z,2.18
2023-01-29T10:44:29.712Z,2.19
2023-01-29T10:49:48.461Z,2.24
2023-01-29T10:54:58.315Z,2.23
2023-01-29T11:00:18.706Z,2.15
2023-01-29T11:05:38.378Z,2.13
2023-01-29T11:10:49.417Z,2.12
2023-01-29T11:15:53.805Z,2.11
2023-01-29T11:21:03.503Z,2.11
2023-01-29T11:26:11.242Z,2.16
2023-01-29T11:31:39.258Z,2.18
2023-01-29T11:36:43.639Z,2.20
2023-01-29T11:41:55.858Z,2.27
2023-01-29T11:47:21.392Z,2.40
2023-01-29T11:52:34.428Z,2.55
2023-01-29T11:57:43.583Z,2.60
2023-01-29T12:02:53.954Z,2.60
2023-01-29T12:08:02.933Z,2.59
2023-01-29T12:13:06.004Z,2.56
2023-01-29T12:18:09.419Z,2.49
2023-01-29T12:23:23.284Z,2.36
2023-01-29T12:28:37.434Z,2.28
2023-01-29T12:34:16.205Z,2.25
2023-01-29T12:39:20.515Z,2.25
2023-01-29T12:44:43.888Z,2.23
2023-01-29T12:49:56.719Z,2.23
2023-01-29T12:55:08.684Z,2.23
2023-01-29T13:00:34.921Z,2.19
2023-01-29T13:06:01.646Z,2.13
2023-01-29T13:11:20.216Z,2.06
2023-01-29T13:16:29.766Z,2.01
2023-01-29T13:21:44.107Z,2.02
2023-01-29T13:26:49.301Z,2.01
2023-01-29T13:31:55.976Z,1.99
2023-01-29T13:37:03.489Z,1.96
2023-01-29T13:42:19.185Z,1.95
2023-01-29T13:47:38.622Z,1.90
2023-01-29T13:52:46.593Z,1.85
2023-01-29T13:57:55.952Z,1.80
2023-01-29T14:03:10.089Z,1.78
2023-01-29T14:08:16.035Z,1.72
2023-01-29T14:13:24.001Z,1.67
2023-01-29T14:18:30.169Z,1.62
2023-01-29T14:23:42.700Z,1.58
2023-01-29T14:29:16.469Z,1.55
2023-01-29T14:34:28.958Z,1.50
2023-01-29T14:39:37.996Z,1.45
2023-01-29T14:44:46.120Z,1.43
2023-01-29T14:49:49.635Z,1.40
2023-01-29T14:54:55.766Z,1.36
2023-01-29T15:00:06.628Z,1.34
2023-01-29T15:05:21.172Z,1.31
2023-01-29T15:10:47.419Z,1.30
2023-01-29T15:16:07.809Z,1.28
2023-01-29T15:21:14.076Z,1.25
2023-01-29T15:26:26.685Z,1.24
2023-01-29T15:31:32.583Z,1.24
2023-01-29T15:36:37.724Z,1.23
2023-01-29T15:41:41.286Z,1.22
2023-01-29T15:46:50.840Z,1.20
2023-01-29T15:52:00.829Z,1.20
2023-01-29T15:57:04.734Z,1.20
2023-01-29T16:02:36.035Z,1.20
2023-01-29T16:07:40.582Z,1.21
2023-01-29T16:12:44.256Z,1.21
2023-01-29T16:17:48.510Z,1.21
2023-01-29T16:22:53.759Z,1.22
2023-01-29T16:27:59.119Z,1.21
2023-01-29T16:33:05.551Z,1.21
2023-01-29T16:38:28.458Z,1.22
2023-01-29T16:43:42.078Z,1.23
2023-01-29T16:48:46.442Z,1.23
2023-01-29T16:54:18.599Z,1.22
2023-01-29T16:59:41.607Z,1.22
2023-01-29T17:04:47.333Z,1.22
2023-01-29T17:09:55.100Z,1.22
2023-01-29T17:15:01.462Z,1.22
2023-01-29T17:20:16.894Z,1.21
2023-01-29T17:25:22.590Z,1.21
2023-01-29T17:30:30.565Z,1.21
2023-01-29T17:35:36.008Z,1.21
2023-01-29T17:40:51.813Z,1.21
2023-01-29T17:45:55.599Z,1.20
2023-01-29T17:51:03.876Z,1.20
2023-01-29T17:56:08.450Z,1.17
2023-01-29T18:01:12.040Z,1.17
2023-01-29T18:06:34.581Z,1.15
2023-01-29T18:11:40.034Z,1.15
2023-01-29T18:16:44.595Z,1.15
2023-01-29T18:21:48.720Z,1.14
2023-01-29T18:26:52.539Z,1.14
2023-01-29T18:31:56.327Z,1.14
2023-01-29T18:37:00.876Z,1.14
2023-01-29T18:42:04.728Z,1.13
2023-01-29T18:47:07.827Z,1.12
2023-01-29T18:52:12.771Z,1.12
2023-01-29T18:58:28.904Z,1.13
2023-01-29T19:02:43.350Z,1.12
2023-01-29T19:07:48.104Z,1.10
2023-01-29T19:12:53.513Z,1.08
2023-01-29T19:17:57.289Z,1.08
2023-01-29T19:23:01.317Z,1.06
2023-01-29T19:28:07.861Z,1.07
2023-01-29T19:33:11.730Z,1.08
2023-01-29T19:38:19.638Z,1.09
2023-01-29T19:43:23.356Z,1.10
2023-01-29T19:48:27.281Z,1.11
2023-01-29T19:53:31.874Z,1.12
2023-01-29T19:58:36.324Z,1.13
2023-01-29T20:03:39.671Z,1.13
2023-01-29T20:08:48.854Z,1.12
2023-01-29T20:13:52.963Z,1.12
2023-01-29T20:19:14.029Z,1.11
2023-01-29T20:24:19.332Z,1.12
2023-01-29T20:29:22.854Z,1.10
2023-01-29T20:34:26.635Z,1.09
2023-01-29T20:39:31.723Z,1.09
2023-01-29T20:44:35.851Z,1.08
2023-01-29T20:49:39.569Z,1.07
2023-01-29T20:54:43.493Z,1.06
2023-01-29T20:59:47.017Z,1.07
2023-01-29T21:04:50.112Z,1.08
2023-01-29T21:09:54.054Z,1.08
2023-01-29T21:14:57.430Z,1.10
2023-01-29T21:20:01.000Z,1.12
2023-01-29T21:25:06.017Z,1.14
2023-01-29T21:30:11.596Z,1.15
2023-01-29T21:35:16.652Z,1.17
2023-01-29T21:40:22.203Z,1.19
2023-01-29T21:45:25.546Z,1.21
2023-01-29T21:50:30.059Z,1.24
2023-01-29T21:55:34.397Z,1.25
2023-01-29T22:00:38.327Z,1.26
2023-01-29T22:05:41.924Z,1.28
2023-01-29T22:10:45.131Z,1.28
2023-01-29T22:15:48.865Z,1.28
2023-01-29T22:20:55.688Z,1.30
2023-01-29T22:26:06.964Z,1.29
2023-01-29T22:31:10.681Z,1.30
2023-01-29T22:36:13.989Z,1.29
2023-01-29T22:41:17.603Z,1.28
2023-01-29T22:46:21.027Z,1.29
2023-01-29T22:51:24.733Z,1.30
2023-01-29T22:56:30.884Z,1.31
2023-01-29T23:01:34.243Z,1.30
2023-01-29T23:06:37.828Z,1.31
2023-01-29T23:11:40.931Z,1.31
2023-01-29T23:16:44.245Z,1.31
2023-01-29T23:21:47.354Z,1.31
2023-01-29T23:27:09.202Z,1.30
2023-01-29T23:32:15.949Z,1.31
2023-01-29T23:37:19.094Z,1.31
2023-01-29T23:42:22.301Z,1.30
2023-01-29T23:47:25.307Z,1.29
2023-01-29T23:52:28.512Z,1.29
2023-01-29T23:57:31.722Z,1.28
